Enfield, Illinois
Current Conditions -  °F | °C
As of 4:18 AM on Tuesday 27 Jan 2015 (Local Time) from KCUL Reporting Station
Haze Haze  
Wind Chill: 32°   Ceiling: 2500
Heat Index: 32°   Visibility: 3mi
Dew Point: 32°   Wind: 0mph
Humidity: 100%   Direction: NA
Pressure: 29.93"   Gusts: NA
Location:  38.1°N, 88.34°W
Report Text: KCUL 271018Z AUTO 00000KT 3SM BR BKN025 OVC030 00/00 A2993 RMK AO2
Loading
Personal Weather Stations






























Interactive Weather Map New forecast layout! Learn more

10-Day Weather Forecast

Advertisements
Track Severe Weather on mobile